• Join FlightAware (Why Join?)
  • Login
  • US Flag 
01:54AM EDT


 

Airport Tracker/Info


-or-


 

Live Flight TrackerFlight Track Log ✈ EJA839 ✈ 22-Apr-2013 ✈ CYYZ - KCMH

Flight Track Log - Related Links

Times and Time Zones

All times are in EDT time to prevent confusion due to time zone crossing. See the EJA839 flight status page for this flight to view local times or setup timezone preferences in your user account.

Time Position Orientation Groundspeed Altitude Reporting Facility
EDT Latitude Longitude Course Direction KTS MPH feet Rate Location/Type
01:01PM 43.6833 -79.5667 55° Northeast 200 230 2,400  Level Toronto Center
01:02PM 43.7167 -79.5000 55° Northeast 240 276 5,500 3,060 Climbing Toronto Center
01:03PM 43.6833 -79.3833 112° Southeast 260 299 8,600 3,240 Climbing Toronto Center
01:04PM 43.6333 -79.3333 144° Southeast 280 322 12,000 3,360 Climbing Toronto Center
01:05PM 43.5667 -79.3833 209° Southwest 290 334 15,400 3,000 Climbing Toronto Center
01:06PM 43.5167 -79.4667 230° Southwest 300 345 18,100 2,400 Climbing Toronto Center
01:07PM 43.4500 -79.5667 227° Southwest 310 357 20,300 2,100 Climbing Toronto Center
01:08PM 43.4000 -79.6500 230° Southwest 330 380 22,400 2,040 Climbing Toronto Center
01:09PM 43.3333 -79.7667 232° Southwest 350 403 24,400 1,740 Climbing Toronto Center
01:10PM 43.2833 -79.8667 236° Southwest 360 414 25,900 780 Climbing Toronto Center
01:11PM 43.2167 -79.9833 232° Southwest 380 437 26,000  Climbing Toronto Center
01:12PM 43.1500 -80.1167 236° Southwest 400 460 26,000  Level Toronto Center
01:13PM 43.0667 -80.2333 226° Southwest 400 460 26,000  Level Toronto Center
01:14PM 43.0000 -80.3333 228° Southwest 400 460 26,000  Level Toronto Center
01:15PM 42.9333 -80.4833 239° Southwest 400 460 26,000  Level Toronto Center
01:16PM 42.8542 -80.6342 234° Southwest 401 461 26,000  Level Cleveland Center
01:17PM 42.7853 -80.7558 232° Southwest 401 461 26,000  Level Cleveland Center
01:18PM 42.7142 -80.8714 230° Southwest 406 467 26,000  Level Cleveland Center
01:19PM 42.6222 -80.9500 212° Southwest 395 455 26,000  Level Cleveland Center
01:20PM 42.5239 -81.0197 208° Southwest 401 461 26,000  Level Cleveland Center
01:21PM 42.4236 -81.0922 208° Southwest 407 468 26,000  Level Cleveland Center
01:22PM 42.3339 -81.1506 206° Southwest 407 468 26,000  Level Cleveland Center
01:23PM 42.2311 -81.2197 206° Southwest 412 474 26,000  Level Cleveland Center
01:24PM 42.1328 -81.2886 207° Southwest 407 468 26,000  Level Cleveland Center
01:25PM 42.0344 -81.3519 206° Southwest 407 468 26,000  Level Cleveland Center
01:26PM 41.9361 -81.4233 208° Southwest 407 468 26,000  Level Cleveland Center
01:27PM 41.8375 -81.4889 206° Southwest 407 468 26,000  Level Cleveland Center
01:28PM 41.7369 -81.5569 207° Southwest 407 468 26,000  Level Cleveland Center
01:29PM 41.6258 -81.6275 205° Southwest 407 468 26,000  Level Cleveland Center
01:30PM 41.5250 -81.6953 207° Southwest 407 468 26,000  Level Cleveland Center
01:31PM 41.4264 -81.7628 207° Southwest 407 468 26,000  Level Cleveland Center
01:32PM 41.3406 -81.8167 205° Southwest 402 463 26,000 -180 Level Cleveland Center
01:33PM 41.2397 -81.8836 207° Southwest 402 463 25,700 -540 Descending Cleveland Center
01:34PM 41.1408 -81.9478 206° Southwest 402 463 25,000 -660 Descending Cleveland Center
01:35PM 41.0317 -82.0228 207° Southwest 408 470 24,400 -1,080 Descending Cleveland Center
01:36PM 40.9350 -82.0839 206° Southwest 394 453 22,900 -1,680 Descending Cleveland Center
01:37PM 40.8422 -82.1447 206° Southwest 386 444 21,100 -2,220 Descending Cleveland Center
01:39PM 40.6694 -82.2558 206° Southwest 345 397 16,100 -2,820 Descending Indianapolis Center
01:40PM 40.5889 -82.3089 207° Southwest 324 373 12,400 -3,000 Descending Indianapolis Center
01:41PM 40.5286 -82.3456 205° Southwest 310 357 11,100 -1,380 Descending Indianapolis Center
01:41PM 40.5119 -82.3597 213° Southwest 310 357 11,000 -120 Descending Indianapolis Center
01:42PM 40.4575 -82.4119 216° Southwest 322 371 11,000 -420 Level Indianapolis Center
01:42PM 40.4261 -82.4392 213° Southwest 319 367 10,600 -900 Descending Indianapolis Center
01:43PM 40.3800 -82.4828 216° Southwest 313 360 10,100 -600 Descending Indianapolis Center
01:44PM 40.3556 -82.5056 215° Southwest 312 359 10,000  Descending Indianapolis Center
01:44PM 40.3108 -82.5492 217° Southwest 310 357 10,100  Climbing Indianapolis Center
01:45PM 40.2842 -82.5733 215° Southwest 314 361 10,000 -720 Descending Indianapolis Center
01:45PM 40.2575 -82.6308 239° Southwest 292 336 9,400 -1,380 Descending Indianapolis Center
01:46PM 40.2475 -82.6661 250° West 280 322 8,600 -1,920 Descending Indianapolis Center
01:46PM 40.2306 -82.7206 248° West 264 304 7,500 -1,980 Descending Indianapolis Center
01:47PM 40.2136 -82.7611 241° Southwest 269 310 6,600 -1,380 Descending Indianapolis Center
01:47PM 40.1958 -82.8039 241° Southwest 252 290 6,100 -600 Descending Indianapolis Center
01:48PM 40.1783 -82.8408 238° Southwest 256 295 6,000  Descending Indianapolis Center
01:48PM 40.1567 -82.8897 240° Southwest 253 291 6,100  Climbing Indianapolis Center
01:49PM 40.1422 -82.9222 240° Southwest 257 296 6,000 -120 Descending Indianapolis Center
01:49PM 40.1194 -82.9753 241° Southwest 251 289 6,000 -540 Level Indianapolis Center
01:50PM 40.1081 -83.0022 241° Southwest 253 291 5,500 -1,380 Descending Indianapolis Center
01:51PM 40.0792 -83.0706 241° Southwest 229 264 4,100 -840 Descending Indianapolis Center
01:51PM 40.0553 -83.1178 237° Southwest 201 231 4,100 -120 Level Indianapolis Center
01:52PM 40.0431 -83.1194 186° South 213 245 4,000 -300 Descending Indianapolis Center
01:52PM 40.0133 -83.0883 141° Southeast 185 213 3,800 -720 Descending Indianapolis Center
01:53PM 40.0092 -83.0717 108° East 197 227 3,300 -1,500 Descending Indianapolis Center
01:53PM 40.0092 -83.0281 90° East 214 246 2,600 -1,080 Descending Indianapolis Center
01:54PM 40.0089 -82.9994 91° East 198 228 2,200 -840 Descending Indianapolis Center
01:54PM 40.0069 -82.9678 95° East 164 189 1,800 -840 Descending Indianapolis Center
01:55PM 40.0050 -82.9450 96° East 169 194 1,400 -600 Descending Indianapolis Center
01:55PM 40.0036 -82.9239 95° East 109 125 1,200 -300 Descending Indianapolis Center
01:56PM 40.0008 -82.9033 100° East 144 166 1,100 -240 Descending Indianapolis Center